createdAt,value
2023-05-02T00:02:14.338Z,98855.06
2023-05-02T00:04:41.399Z,98859.09
2023-05-02T00:07:08.221Z,98854.06
2023-05-02T00:09:34.901Z,98858.44
2023-05-02T00:12:02.684Z,98861.16
2023-05-02T00:14:30.884Z,98860.25
2023-05-02T00:16:59.277Z,98866.63
2023-05-02T00:19:28.100Z,98860.78
2023-05-02T00:21:55.282Z,98858.91
2023-05-02T00:24:21.957Z,98861.00
2023-05-02T00:26:48.590Z,98867.88
2023-05-02T00:29:17.329Z,98862.63
2023-05-02T00:31:45.173Z,98855.69
2023-05-02T00:34:13.900Z,98850.50
2023-05-02T00:36:40.465Z,98852.41
2023-05-02T00:39:07.122Z,98853.28
2023-05-02T00:41:35.294Z,98857.75
2023-05-02T00:44:02.674Z,98855.13
2023-05-02T00:46:30.485Z,98858.59
2023-05-02T00:48:57.158Z,98863.13
2023-05-02T00:51:23.793Z,98866.66
2023-05-02T00:53:51.009Z,98865.88
2023-05-02T00:56:17.656Z,98872.19
2023-05-02T00:58:44.950Z,98872.41
2023-05-02T01:01:26.006Z,98864.56
2023-05-02T01:04:14.835Z,98864.00
2023-05-02T01:07:24.943Z,98871.16
2023-05-02T01:10:18.914Z,98871.44
2023-05-02T01:13:03.595Z,98880.72
2023-05-02T01:15:34.070Z,98891.53
2023-05-02T01:18:04.483Z,98892.31
2023-05-02T01:20:37.122Z,98894.78
2023-05-02T01:23:16.003Z,98890.56
2023-05-02T01:26:16.974Z,98894.25
2023-05-02T01:29:06.128Z,98892.66
2023-05-02T01:31:36.950Z,98897.97
2023-05-02T01:34:10.104Z,98899.09
2023-05-02T01:36:43.923Z,98902.56
2023-05-02T01:39:16.095Z,98891.31
2023-05-02T01:41:46.960Z,98899.16
2023-05-02T01:44:18.884Z,98899.09
2023-05-02T01:46:48.975Z,98903.56
2023-05-02T01:49:16.505Z,98897.66
2023-05-02T01:51:50.372Z,98899.25
2023-05-02T01:54:20.292Z,98897.75
2023-05-02T01:56:49.312Z,98910.69
2023-05-02T01:59:20.509Z,98916.84
2023-05-02T02:01:48.438Z,98918.59
2023-05-02T02:04:19.045Z,98918.16
2023-05-02T02:06:58.124Z,98925.16
2023-05-02T02:09:26.308Z,98927.00
2023-05-02T02:11:57.828Z,98935.03
2023-05-02T02:14:34.017Z,98937.63
2023-05-02T02:17:12.541Z,98935.00
2023-05-02T02:19:41.279Z,98940.34
2023-05-02T02:22:11.867Z,98947.50
2023-05-02T02:24:40.446Z,98948.50
2023-05-02T02:27:07.102Z,98952.25
2023-05-02T02:29:35.201Z,98950.63
2023-05-02T02:32:02.161Z,98949.97
2023-05-02T02:34:29.074Z,98956.03
2023-05-02T02:37:05.462Z,98958.88
2023-05-02T02:39:50.028Z,98961.56
2023-05-02T02:42:27.049Z,98965.22
2023-05-02T02:45:24.038Z,98979.25
2023-05-02T02:48:00.110Z,98961.09
2023-05-02T02:50:38.409Z,98970.03
2023-05-02T02:53:10.993Z,98976.97
2023-05-02T02:55:52.895Z,98973.69
2023-05-02T02:58:37.475Z,98970.94
2023-05-02T03:01:12.835Z,98976.25
2023-05-02T03:03:43.192Z,98979.84
2023-05-02T03:06:10.393Z,98980.19
2023-05-02T03:08:45.497Z,98982.56
2023-05-02T03:11:12.446Z,98990.34
2023-05-02T03:13:40.230Z,98990.06
2023-05-02T03:16:40.372Z,98994.44
2023-05-02T03:19:09.946Z,99004.13
2023-05-02T03:21:38.181Z,99013.16
2023-05-02T03:24:06.375Z,99008.97
2023-05-02T03:26:33.014Z,99012.41
2023-05-02T03:28:59.689Z,99012.28
2023-05-02T03:31:27.166Z,99015.03
2023-05-02T03:33:54.550Z,99012.28
2023-05-02T03:36:21.242Z,99025.34
2023-05-02T03:38:47.902Z,99015.81
2023-05-02T03:41:14.554Z,99020.91
2023-05-02T03:43:41.176Z,99019.47
2023-05-02T03:46:09.729Z,99026.13
2023-05-02T03:48:36.762Z,99028.44
2023-05-02T03:51:05.791Z,99010.22
2023-05-02T03:53:32.592Z,99026.69
2023-05-02T03:55:59.395Z,99030.19
2023-05-02T03:58:26.960Z,99026.91
2023-05-02T04:00:54.212Z,99026.00
2023-05-02T04:03:22.757Z,99031.41
2023-05-02T04:05:49.544Z,99026.97
2023-05-02T04:08:17.016Z,99022.91
2023-05-02T04:10:43.600Z,99034.38
2023-05-02T04:13:10.125Z,99035.56
2023-05-02T04:15:37.957Z,99025.41
2023-05-02T04:18:04.683Z,99034.59
2023-05-02T04:20:32.918Z,99027.50
2023-05-02T04:23:00.928Z,99022.19
2023-05-02T04:25:27.905Z,99027.41
2023-05-02T04:27:55.390Z,99029.16
2023-05-02T04:30:22.535Z,99030.91
2023-05-02T04:32:49.216Z,99037.81
2023-05-02T04:35:15.823Z,99040.56
2023-05-02T04:37:43.970Z,99049.47
2023-05-02T04:40:11.517Z,99050.22
2023-05-02T04:42:38.182Z,99048.44
2023-05-02T04:45:05.404Z,99057.97
2023-05-02T04:47:32.068Z,99049.47
2023-05-02T04:49:58.921Z,99063.44
2023-05-02T04:52:25.790Z,99067.47
2023-05-02T04:54:54.293Z,99069.78
2023-05-02T04:57:23.461Z,99073.06
2023-05-02T04:59:52.103Z,99069.38
2023-05-02T05:02:20.408Z,99080.22
2023-05-02T05:04:47.198Z,99088.25
2023-05-02T05:07:13.954Z,99085.28
2023-05-02T05:09:40.621Z,99091.88
2023-05-02T05:12:08.967Z,99099.41
2023-05-02T05:14:35.982Z,99095.03
2023-05-02T05:17:04.993Z,99100.81
2023-05-02T05:19:32.932Z,99094.81
2023-05-02T05:21:59.528Z,99098.81
2023-05-02T05:24:26.324Z,99103.66
2023-05-02T05:26:54.841Z,99101.00
2023-05-02T05:29:23.219Z,99110.91
2023-05-02T05:31:51.151Z,99111.59
2023-05-02T05:34:19.841Z,99115.88
2023-05-02T05:36:47.229Z,99124.94
2023-05-02T05:39:13.877Z,99119.78
2023-05-02T05:41:40.449Z,99125.06
2023-05-02T05:44:07.057Z,99129.06
2023-05-02T05:46:35.258Z,99135.78
2023-05-02T05:49:02.108Z,99137.75
2023-05-02T05:51:28.904Z,99133.66
2023-05-02T05:53:55.660Z,99136.06
2023-05-02T05:56:23.263Z,99141.81
2023-05-02T05:58:51.869Z,99144.09
2023-05-02T06:01:19.856Z,99150.53
2023-05-02T06:03:46.565Z,99146.56
2023-05-02T06:06:14.353Z,99150.72
2023-05-02T06:08:41.872Z,99155.00
2023-05-02T06:11:14.201Z,99149.44
2023-05-02T06:13:40.813Z,99148.03
2023-05-02T06:16:09.545Z,99149.16
2023-05-02T06:18:38.303Z,99157.25
2023-05-02T06:21:06.220Z,99158.47
2023-05-02T06:23:33.428Z,99166.56
2023-05-02T06:26:02.866Z,99160.84
2023-05-02T06:28:30.270Z,99180.47
2023-05-02T06:31:06.068Z,99172.44
2023-05-02T06:33:33.978Z,99177.03
2023-05-02T06:36:02.520Z,99178.00
2023-05-02T06:38:29.435Z,99182.78
2023-05-02T06:40:57.231Z,99185.28
2023-05-02T06:43:25.956Z,99186.97
2023-05-02T06:45:55.024Z,99187.31
2023-05-02T06:48:23.422Z,99183.53
2023-05-02T06:50:51.950Z,99194.53
2023-05-02T06:53:18.707Z,99196.03
2023-05-02T06:55:47.008Z,99196.97
2023-05-02T06:58:14.467Z,99204.69
2023-05-02T07:00:41.250Z,99207.97
2023-05-02T07:03:08.006Z,99204.78
2023-05-02T07:05:36.266Z,99204.59
2023-05-02T07:08:03.034Z,99208.16
2023-05-02T07:10:29.842Z,99215.84
2023-05-02T07:12:56.589Z,99212.84
2023-05-02T07:15:24.269Z,99213.38
2023-05-02T07:17:51.074Z,99214.13
2023-05-02T07:20:17.963Z,99221.31
2023-05-02T07:22:44.616Z,99219.59
2023-05-02T07:25:11.368Z,99219.53
2023-05-02T07:27:38.132Z,99230.38
2023-05-02T07:30:06.857Z,99225.84
2023-05-02T07:32:33.597Z,99218.16
2023-05-02T07:35:01.800Z,99224.03
2023-05-02T07:37:35.511Z,99221.00
2023-05-02T07:40:02.715Z,99225.84
2023-05-02T07:42:31.472Z,99225.81
2023-05-02T07:44:59.873Z,99233.44
2023-05-02T07:47:26.932Z,99225.97
2023-05-02T07:49:57.137Z,99227.56
2023-05-02T07:52:25.169Z,99237.88
2023-05-02T07:54:52.470Z,99238.28
2023-05-02T07:57:19.094Z,99240.00
2023-05-02T07:59:45.848Z,99251.56
2023-05-02T08:02:13.880Z,99256.94
2023-05-02T08:04:42.520Z,99248.47
2023-05-02T08:07:10.355Z,99253.19
2023-05-02T08:09:37.533Z,99261.47
2023-05-02T08:12:06.730Z,99260.63
2023-05-02T08:14:33.686Z,99264.59
2023-05-02T08:17:00.938Z,99265.53
2023-05-02T08:19:28.143Z,99266.28
2023-05-02T08:21:55.409Z,99271.38
2023-05-02T08:24:23.131Z,99272.41
2023-05-02T08:26:51.912Z,99267.25
2023-05-02T08:29:18.630Z,99271.19
2023-05-02T08:31:45.408Z,99272.47
2023-05-02T08:34:12.271Z,99273.94
2023-05-02T08:36:41.963Z,99270.38
2023-05-02T08:39:09.484Z,99273.63
2023-05-02T08:41:38.084Z,99280.31
2023-05-02T08:44:07.617Z,99277.50
2023-05-02T08:46:36.773Z,99275.97
2023-05-02T08:49:03.894Z,99271.59
2023-05-02T08:51:33.981Z,99267.78
2023-05-02T08:54:03.522Z,99272.00
2023-05-02T08:56:30.488Z,99270.16
2023-05-02T08:58:59.037Z,99267.13
2023-05-02T09:01:31.022Z,99279.06
2023-05-02T09:03:59.381Z,99278.66
2023-05-02T09:06:27.431Z,99274.97
2023-05-02T09:08:54.062Z,62137.28
2023-05-02T09:11:22.978Z,99270.84
2023-05-02T09:13:54.536Z,99277.28
2023-05-02T09:16:23.194Z,99286.81
2023-05-02T09:18:52.417Z,99278.94
2023-05-02T09:21:21.947Z,99290.59
2023-05-02T09:23:53.881Z,99295.34
2023-05-02T09:26:32.041Z,99303.38
2023-05-02T09:29:02.213Z,99306.66
2023-05-02T09:31:54.867Z,99307.50
2023-05-02T09:34:22.663Z,99313.88
2023-05-02T09:36:54.231Z,99320.59
2023-05-02T09:39:26.567Z,99317.69
2023-05-02T09:41:54.095Z,99320.72
2023-05-02T09:44:25.149Z,99320.81
2023-05-02T09:46:52.992Z,99319.28
2023-05-02T09:49:20.604Z,99319.03
2023-05-02T09:51:48.473Z,99325.13
2023-05-02T09:54:38.823Z,99323.28
2023-05-02T09:57:07.324Z,99320.25
2023-05-02T09:59:34.216Z,99318.00
2023-05-02T10:02:04.352Z,99321.47
2023-05-02T10:04:32.717Z,99322.31
2023-05-02T10:07:00.183Z,99324.91
2023-05-02T10:09:32.860Z,99335.31
2023-05-02T10:12:05.054Z,99319.53
2023-05-02T10:14:35.557Z,99315.88
2023-05-02T10:17:16.590Z,99329.56
2023-05-02T10:19:54.221Z,99332.44
2023-05-02T10:22:23.792Z,99329.75
2023-05-02T10:24:53.404Z,99328.25
2023-05-02T10:27:20.280Z,99324.00
2023-05-02T10:29:47.571Z,99323.53
2023-05-02T10:32:17.695Z,99314.22
2023-05-02T10:34:45.414Z,99313.19
2023-05-02T10:37:13.136Z,99318.00
2023-05-02T10:39:40.088Z,99317.16
2023-05-02T10:42:08.164Z,99310.41
2023-05-02T10:44:39.867Z,99319.25
2023-05-02T10:47:24.235Z,99301.94
2023-05-02T10:49:57.875Z,99302.34
2023-05-02T10:52:44.173Z,99305.88
2023-05-02T10:55:17.832Z,99305.34
2023-05-02T10:58:06.342Z,99304.28
2023-05-02T11:00:34.300Z,99299.00
2023-05-02T11:03:04.825Z,99290.41
2023-05-02T11:05:37.140Z,99301.06
2023-05-02T11:08:17.171Z,99298.19
2023-05-02T11:10:46.485Z,99287.00
2023-05-02T11:13:14.932Z,99291.84
2023-05-02T11:15:42.194Z,99293.13
2023-05-02T11:18:12.562Z,99289.19
2023-05-02T11:20:43.468Z,99281.81
2023-05-02T11:23:30.539Z,99283.22
2023-05-02T11:26:00.505Z,99286.03
2023-05-02T11:28:48.195Z,99270.41
2023-05-02T11:31:27.449Z,99280.81
2023-05-02T11:34:03.470Z,99269.75
2023-05-02T11:36:35.888Z,99266.75
2023-05-02T11:39:05.870Z,99268.06
2023-05-02T11:41:42.671Z,99268.25
2023-05-02T11:44:11.408Z,99266.44
2023-05-02T11:46:40.752Z,99263.69
2023-05-02T11:49:15.365Z,99252.22
2023-05-02T11:51:43.772Z,99259.59
2023-05-02T11:54:23.024Z,99263.13
2023-05-02T11:56:49.632Z,99263.63
2023-05-02T11:59:18.276Z,99265.28
2023-05-02T12:01:51.160Z,99264.97
2023-05-02T12:04:23.836Z,99271.88
2023-05-02T12:06:59.501Z,99269.56
2023-05-02T12:09:26.188Z,99263.56
2023-05-02T12:11:54.203Z,99269.44
2023-05-02T12:14:34.971Z,99262.78
2023-05-02T12:17:04.151Z,99267.81
2023-05-02T12:19:31.100Z,99262.16
2023-05-02T12:21:58.252Z,99256.50
2023-05-02T12:24:25.510Z,99268.28
2023-05-02T12:27:12.248Z,99262.88
2023-05-02T12:29:49.213Z,99263.69
2023-05-02T12:32:27.615Z,99266.34
2023-05-02T12:34:54.724Z,99267.56
2023-05-02T12:37:26.929Z,99268.59
2023-05-02T12:39:55.762Z,99270.44
2023-05-02T12:42:26.877Z,99283.25
2023-05-02T12:44:53.647Z,99287.53
2023-05-02T12:47:25.346Z,99284.34
2023-05-02T12:49:53.851Z,99285.41
2023-05-02T12:52:22.087Z,99288.50
2023-05-02T12:54:50.437Z,99291.09
2023-05-02T12:57:26.781Z,99292.69
2023-05-02T12:59:57.551Z,99292.91
2023-05-02T13:02:24.787Z,99287.41
2023-05-02T13:04:51.768Z,99291.06
2023-05-02T13:07:20.962Z,99291.09
2023-05-02T13:09:49.888Z,99291.66
2023-05-02T13:12:16.667Z,99303.25
2023-05-02T13:14:43.620Z,99304.69
2023-05-02T13:17:11.626Z,99300.19
2023-05-02T13:19:44.423Z,99299.78
2023-05-02T13:22:14.286Z,99297.13
2023-05-02T13:24:40.970Z,99304.44
2023-05-02T13:27:08.815Z,99297.16
2023-05-02T13:29:36.532Z,99303.97
2023-05-02T13:32:03.320Z,99298.31
2023-05-02T13:34:29.956Z,99290.13
2023-05-02T13:36:56.784Z,99291.44
2023-05-02T13:39:24.186Z,99286.41
2023-05-02T13:41:51.175Z,99285.91
2023-05-02T13:44:17.846Z,99293.72
2023-05-02T13:46:46.300Z,99292.19
2023-05-02T13:49:13.170Z,99282.81
2023-05-02T13:51:40.116Z,99287.75
2023-05-02T13:54:08.244Z,99282.72
2023-05-02T13:56:35.393Z,99287.75
2023-05-02T13:59:02.173Z,99287.75
2023-05-02T14:01:30.179Z,99285.72
2023-05-02T14:03:59.264Z,99287.03
2023-05-02T14:06:26.204Z,99283.84
2023-05-02T14:08:52.886Z,99285.75
2023-05-02T14:11:21.290Z,99284.00
2023-05-02T14:13:49.262Z,99290.38
2023-05-02T14:16:16.330Z,99294.56
2023-05-02T14:18:42.983Z,99285.63
2023-05-02T14:21:10.188Z,99294.78
2023-05-02T14:23:36.805Z,99285.16
2023-05-02T14:26:04.215Z,99280.34
2023-05-02T14:28:32.904Z,99287.41
2023-05-02T14:30:59.836Z,99289.66
2023-05-02T14:33:27.637Z,99288.00
2023-05-02T14:35:54.348Z,99293.66
2023-05-02T14:38:22.318Z,99292.78
2023-05-02T14:40:49.291Z,99299.16
2023-05-02T14:43:16.121Z,99295.81
2023-05-02T14:45:42.775Z,99288.75
2023-05-02T14:48:10.860Z,99287.44
2023-05-02T14:50:39.673Z,99283.06
2023-05-02T14:53:08.271Z,99288.75
2023-05-02T14:55:39.344Z,99283.41
2023-05-02T14:58:08.849Z,99279.03
2023-05-02T15:00:37.777Z,99284.34
2023-05-02T15:03:07.666Z,99280.66
2023-05-02T15:05:37.080Z,99292.03
2023-05-02T15:08:06.170Z,99280.84
2023-05-02T15:10:39.000Z,99291.22
2023-05-02T15:13:06.758Z,99291.34
2023-05-02T15:15:33.473Z,99290.22
2023-05-02T15:18:00.294Z,99287.22
2023-05-02T15:20:27.002Z,99288.72
2023-05-02T15:22:54.938Z,99294.09
2023-05-02T15:25:21.653Z,99282.31
2023-05-02T15:27:50.662Z,99281.28
2023-05-02T15:30:18.103Z,99289.84
2023-05-02T15:32:44.968Z,99284.78
2023-05-02T15:35:12.937Z,99279.22
2023-05-02T15:37:39.698Z,99275.72
2023-05-02T15:40:08.650Z,99281.34
2023-05-02T15:42:37.132Z,99278.72
2023-05-02T15:45:04.878Z,99278.31
2023-05-02T15:47:32.489Z,99282.75
2023-05-02T15:50:01.098Z,99276.25
2023-05-02T15:52:29.500Z,99276.00
2023-05-02T15:54:56.637Z,99278.22
2023-05-02T15:57:23.263Z,99281.56
2023-05-02T15:59:50.280Z,99273.28
2023-05-02T16:02:18.948Z,99282.00
2023-05-02T16:04:46.561Z,99285.31
2023-05-02T16:07:14.103Z,99295.00
2023-05-02T16:09:43.986Z,99298.72
2023-05-02T16:12:10.842Z,99294.16
2023-05-02T16:14:38.975Z,99285.00
2023-05-02T16:17:05.681Z,99290.44
2023-05-02T16:19:33.372Z,62137.28
2023-05-02T16:22:00.013Z,62137.28
2023-05-02T16:24:26.857Z,62137.28
2023-05-02T16:26:53.498Z,62137.28
2023-05-02T16:29:22.136Z,62137.28
2023-05-02T16:31:48.831Z,99294.31
2023-05-02T16:34:15.643Z,99290.56
2023-05-02T16:36:42.827Z,99288.31
2023-05-02T16:39:12.329Z,99303.97
2023-05-02T16:41:39.096Z,99286.94
2023-05-02T16:44:05.777Z,99294.41
2023-05-02T16:46:32.907Z,99306.19
2023-05-02T16:48:59.596Z,99293.31
2023-05-02T16:51:26.460Z,99291.22
2023-05-02T16:53:53.214Z,99290.66
2023-05-02T16:56:20.116Z,99292.91
2023-05-02T16:58:48.523Z,99292.34
2023-05-02T17:01:17.442Z,99296.00
2023-05-02T17:03:44.255Z,99298.38
2023-05-02T17:06:10.944Z,99301.47
2023-05-02T17:08:38.480Z,99304.97
2023-05-02T17:11:05.673Z,99295.25
2023-05-02T17:13:32.891Z,99293.41
2023-05-02T17:16:01.584Z,99305.81
2023-05-02T17:18:29.623Z,99302.50
2023-05-02T17:20:56.317Z,99301.78
2023-05-02T17:23:24.000Z,99302.03
2023-05-02T17:25:51.609Z,99303.28
2023-05-02T17:28:18.309Z,99308.31
2023-05-02T17:30:45.180Z,99308.72
2023-05-02T17:33:11.969Z,99308.50
2023-05-02T17:35:38.744Z,99312.59
2023-05-02T17:38:09.058Z,99315.50
2023-05-02T17:40:37.447Z,99316.19
2023-05-02T17:43:05.380Z,99317.38
2023-05-02T17:45:32.063Z,99320.94
2023-05-02T17:47:58.895Z,99322.94
2023-05-02T17:50:26.262Z,99333.13
2023-05-02T17:52:53.150Z,99334.56
2023-05-02T17:55:19.821Z,99327.31
2023-05-02T17:57:47.642Z,99341.84
2023-05-02T18:00:14.766Z,99346.06
2023-05-02T18:02:44.232Z,99342.78
2023-05-02T18:05:11.227Z,99341.81
2023-05-02T18:07:37.890Z,99350.03
2023-05-02T18:10:05.357Z,99340.41
2023-05-02T18:12:33.475Z,99342.88
2023-05-02T18:15:05.429Z,99353.19
2023-05-02T18:17:32.546Z,99346.91
2023-05-02T18:19:59.256Z,99355.44
2023-05-02T18:22:26.529Z,99362.84
2023-05-02T18:24:54.326Z,99360.53
2023-05-02T18:27:21.910Z,99354.56
2023-05-02T18:29:50.322Z,99367.88
2023-05-02T18:32:18.289Z,99359.97
2023-05-02T18:34:44.884Z,99367.09
2023-05-02T18:37:11.588Z,99371.00
2023-05-02T18:39:38.179Z,99377.28
2023-05-02T18:42:04.976Z,99377.44
2023-05-02T18:44:32.159Z,99386.25
2023-05-02T18:47:01.066Z,99377.25
2023-05-02T18:49:27.763Z,99388.25
2023-05-02T18:51:55.166Z,99393.22
2023-05-02T18:54:23.517Z,99397.44
2023-05-02T18:56:50.488Z,99405.38
2023-05-02T18:59:18.306Z,99409.47
2023-05-02T19:01:49.014Z,99409.47
2023-05-02T19:04:15.876Z,99415.19
2023-05-02T19:06:43.306Z,99418.47
2023-05-02T19:09:13.274Z,99421.75
2023-05-02T19:11:40.524Z,99425.72
2023-05-02T19:14:09.181Z,99419.78
2023-05-02T19:16:40.197Z,99429.06
2023-05-02T19:19:08.819Z,99439.28
2023-05-02T19:21:37.089Z,99439.50
2023-05-02T19:24:04.018Z,99442.22
2023-05-02T19:26:30.920Z,99445.38
2023-05-02T19:28:57.519Z,99449.16
2023-05-02T19:31:24.643Z,99445.75
2023-05-02T19:33:52.054Z,99453.41
2023-05-02T19:36:21.934Z,99444.91
2023-05-02T19:38:54.016Z,99455.75
2023-05-02T19:41:25.199Z,99464.97
2023-05-02T19:43:52.344Z,99469.13
2023-05-02T19:46:21.330Z,99465.91
2023-05-02T19:48:48.124Z,99468.75
2023-05-02T19:51:14.765Z,99473.78
2023-05-02T19:53:41.432Z,99474.09
2023-05-02T19:56:08.416Z,99486.72
2023-05-02T19:58:36.969Z,99484.31
2023-05-02T20:01:03.804Z,99483.91
2023-05-02T20:03:30.685Z,99488.75
2023-05-02T20:06:00.085Z,99490.31
2023-05-02T20:08:28.080Z,99499.63
2023-05-02T20:10:56.015Z,99505.25
2023-05-02T20:13:22.720Z,99522.94
2023-05-02T20:15:53.614Z,99517.22
2023-05-02T20:18:20.858Z,99516.69
2023-05-02T20:20:47.525Z,99523.47
2023-05-02T20:23:14.310Z,99530.25
2023-05-02T20:25:42.652Z,99535.84
2023-05-02T20:28:09.839Z,99535.16
2023-05-02T20:30:36.496Z,99537.56
2023-05-02T20:33:13.987Z,99536.00
2023-05-02T20:35:42.625Z,99535.38
2023-05-02T20:38:09.871Z,99539.41
2023-05-02T20:40:39.822Z,99541.88
2023-05-02T20:43:06.634Z,99541.09
2023-05-02T20:45:33.518Z,99540.22
2023-05-02T20:48:00.225Z,99548.75
2023-05-02T20:50:27.151Z,99558.59
2023-05-02T20:52:54.384Z,99561.34
2023-05-02T20:55:22.696Z,99563.53
2023-05-02T20:57:53.337Z,99560.50
2023-05-02T21:00:23.978Z,99561.56
2023-05-02T21:02:51.412Z,99555.66
2023-05-02T21:05:18.109Z,99562.63
2023-05-02T21:07:46.533Z,99563.72
2023-05-02T21:10:13.535Z,99564.78
2023-05-02T21:12:40.167Z,99563.66
2023-05-02T21:15:07.989Z,99560.19
2023-05-02T21:17:34.819Z,99564.00
2023-05-02T21:20:02.544Z,99566.06
2023-05-02T21:22:29.725Z,99567.78
2023-05-02T21:24:56.447Z,99564.53
2023-05-02T21:27:23.278Z,99573.34
2023-05-02T21:29:50.204Z,99575.34
2023-05-02T21:32:16.780Z,99575.44
2023-05-02T21:34:43.413Z,99578.00
2023-05-02T21:37:09.937Z,99571.19
2023-05-02T21:39:38.357Z,99572.25
2023-05-02T21:42:05.126Z,99572.25
2023-05-02T21:44:31.716Z,99567.19
2023-05-02T21:46:58.993Z,99570.88
2023-05-02T21:49:25.672Z,99574.63
2023-05-02T21:51:52.300Z,99582.06
2023-05-02T21:54:18.871Z,99585.94
2023-05-02T21:56:45.484Z,99582.44
2023-05-02T21:59:13.257Z,99585.06
2023-05-02T22:01:40.524Z,99575.44
2023-05-02T22:04:08.007Z,99574.66
2023-05-02T22:06:34.929Z,99582.00
2023-05-02T22:09:02.314Z,99584.94
2023-05-02T22:11:30.107Z,99579.31
2023-05-02T22:13:58.139Z,99574.47
2023-05-02T22:16:24.765Z,99580.66
2023-05-02T22:18:51.567Z,99577.34
2023-05-02T22:21:18.937Z,99572.09
2023-05-02T22:23:45.551Z,99580.19
2023-05-02T22:26:12.170Z,99576.34
2023-05-02T22:28:38.829Z,99573.41
2023-05-02T22:31:05.727Z,99577.31
2023-05-02T22:33:33.042Z,99562.88
2023-05-02T22:35:59.982Z,99575.22
2023-05-02T22:38:26.548Z,99579.63
2023-05-02T22:40:55.108Z,99578.81
2023-05-02T22:43:21.665Z,99583.94
2023-05-02T22:45:51.152Z,99582.31
2023-05-02T22:48:17.915Z,99586.19
2023-05-02T22:50:48.619Z,99586.06
2023-05-02T22:53:15.240Z,99578.09
2023-05-02T22:55:42.106Z,99589.59
2023-05-02T22:58:08.717Z,99588.97
2023-05-02T23:00:35.307Z,99589.91
2023-05-02T23:03:02.543Z,99588.31
2023-05-02T23:05:29.731Z,99589.41
2023-05-02T23:07:56.347Z,99596.53
2023-05-02T23:10:23.113Z,99590.53
2023-05-02T23:12:49.693Z,99592.31
2023-05-02T23:15:16.992Z,99595.94
2023-05-02T23:17:43.659Z,99595.56
2023-05-02T23:20:11.137Z,99592.06
2023-05-02T23:22:44.648Z,99590.25
2023-05-02T23:25:13.827Z,99593.25
2023-05-02T23:27:40.653Z,99587.56
2023-05-02T23:30:08.424Z,99589.16
2023-05-02T23:32:35.200Z,99586.47
2023-05-02T23:35:02.446Z,99580.28
2023-05-02T23:37:29.585Z,99582.22
2023-05-02T23:39:58.157Z,99579.72
2023-05-02T23:42:24.806Z,99576.34
2023-05-02T23:44:53.719Z,99576.38
2023-05-02T23:47:22.907Z,99583.56
2023-05-02T23:49:49.510Z,99575.84
2023-05-02T23:52:16.096Z,99574.31
2023-05-02T23:54:42.618Z,99574.50
2023-05-02T23:57:09.640Z,99581.69
2023-05-02T23:59:36.292Z,99574.91
